Time;durP1;ratioP1;P1;durP2;ratioP2;P2;SDS_P1;SDS_P2;PMS_P1;PMS_P2;Temp;Humidity;BMP_temperature;BMP_pressure;BME280_temperature;BME280_humidity;BME280_pressure;Samples;Min_cycle;Max_cycle;Signal;HPM_P1;HPM_P2
2022/05/09 00:02:10;;;;;;;5.97;3.67;;;;;;;6.49;100.00;97585.97;10372088;28;20248;-54
2022/05/09 00:07:11;;;;;;;6.27;3.80;;;;;;;6.38;100.00;97578.91;10371647;28;20670;-51
2022/05/09 00:12:11;;;;;;;9.23;3.63;;;;;;;6.29;100.00;97581.34;10371774;28;20205;-51
2022/05/09 00:17:12;;;;;;;6.97;3.47;;;;;;;6.21;100.00;97580.13;10371778;28;20189;-55
2022/05/09 00:22:12;;;;;;;10.33;3.10;;;;;;;6.20;100.00;97578.47;10371153;28;20229;-55
2022/05/09 00:27:12;;;;;;;5.07;3.07;;;;;;;6.11;100.00;97583.47;10371114;28;20690;-55
2022/05/09 00:32:13;;;;;;;6.03;2.90;;;;;;;6.09;100.00;97585.34;10370764;28;20687;-54
2022/05/09 00:37:13;;;;;;;6.57;3.30;;;;;;;5.98;100.00;97581.72;10368483;28;20277;-51
2022/05/09 00:42:14;;;;;;;8.20;3.10;;;;;;;5.89;100.00;97595.31;10370443;28;20217;-54
2022/05/09 00:47:14;;;;;;;4.37;2.90;;;;;;;5.87;100.00;97592.81;10369803;28;20197;-52
2022/05/09 00:52:25;;;;;;;7.43;2.70;;;;;;;5.71;100.00;97590.47;10370245;28;20205;-56
2022/05/09 00:57:33;;;;;;;3.03;2.00;;;;;;;5.64;100.00;97586.59;10370130;28;20838;-56
2022/05/09 01:02:34;;;;;;;4.97;2.70;;;;;;;5.54;100.00;97586.41;10350978;28;20232;-56
2022/05/09 01:07:35;;;;;;;9.23;3.40;;;;;;;5.54;100.00;97586.41;10369900;28;20224;-52
2022/05/09 01:12:36;;;;;;;6.43;2.53;;;;;;;5.56;100.00;97581.09;10369695;28;20191;-53
2022/05/09 01:17:39;;;;;;;7.40;2.77;;;;;;;5.48;100.00;97572.97;10352208;28;20185;-54
2022/05/09 01:22:41;;;;;;;8.87;3.40;;;;;;;5.32;100.00;97578.38;10369295;28;20225;-53
2022/05/09 01:27:43;;;;;;;5.53;2.77;;;;;;;5.18;100.00;97581.88;10369632;28;20189;-53
2022/05/09 01:33:05;;;;;;;4.50;2.20;;;;;;;5.17;100.00;97572.41;10369573;28;20724;-53
2022/05/09 01:38:16;;;;;;;8.20;3.10;;;;;;;5.13;100.00;97573.53;10369476;28;20209;-52
2022/05/09 01:43:52;;;;;;;6.07;3.70;;;;;;;5.11;100.00;97570.22;10352023;28;20229;-53
2022/05/09 01:54:12;;;;;;;7.43;2.93;;;;;;;5.02;100.00;97569.06;10368934;28;20722;-52
2022/05/09 01:59:13;;;;;;;5.17;3.10;;;;;;;4.95;100.00;97571.25;10368887;28;20332;-52
2022/05/09 02:04:13;;;;;;;6.90;2.73;;;;;;;4.96;100.00;97579.84;10368796;28;20221;-54
2022/05/09 02:09:14;;;;;;;7.90;3.30;;;;;;;4.87;100.00;97583.03;10368646;28;20220;-54
2022/05/09 02:14:15;;;;;;;6.73;2.47;;;;;;;4.76;100.00;97581.13;10370348;28;20687;-53
2022/05/09 02:19:15;;;;;;;4.57;2.70;;;;;;;4.67;100.00;97585.19;10375749;28;20209;-53
2022/05/09 02:24:16;;;;;;;6.13;2.77;;;;;;;4.67;100.00;97586.91;10374183;28;20236;-52
2022/05/09 02:29:17;;;;;;;9.63;3.20;;;;;;;4.61;100.00;97585.56;10372574;28;20235;-52
2022/05/09 02:34:17;;;;;;;6.63;2.50;;;;;;;4.55;100.00;97588.53;10375232;28;20441;-54
2022/05/09 02:39:19;;;;;;;4.93;2.80;;;;;;;4.53;100.00;97588.63;10375302;28;20660;-55
2022/05/09 02:44:19;;;;;;;4.33;2.50;;;;;;;4.53;100.00;97593.00;10374703;28;20229;-52
2022/05/09 02:49:19;;;;;;;9.90;2.93;;;;;;;4.45;100.00;97593.47;10374874;28;20654;-53
2022/05/09 02:54:22;;;;;;;8.73;2.90;;;;;;;4.50;100.00;97595.78;10371864;28;20190;-54
2022/05/09 02:59:22;;;;;;;6.80;3.27;;;;;;;4.48;100.00;97598.47;10373220;28;20719;-57
2022/05/09 03:04:41;;;;;;;4.33;2.60;;;;;;;4.38;100.00;97593.03;10373722;28;20729;-52
2022/05/09 03:09:47;;;;;;;5.30;2.77;;;;;;;4.44;100.00;97594.41;10374071;28;20221;-54
2022/05/09 03:14:48;;;;;;;9.93;2.70;;;;;;;4.42;100.00;97591.91;10373839;28;20614;-52
2022/05/09 03:19:48;;;;;;;8.70;3.40;;;;;;;4.44;100.00;97592.66;10373849;28;20363;-53
2022/05/09 03:24:49;;;;;;;8.77;3.13;;;;;;;4.32;100.00;97590.81;10372894;28;20705;-52
2022/05/09 03:29:49;;;;;;;3.93;3.00;;;;;;;4.26;100.00;97593.81;10373076;28;20707;-52
2022/05/09 03:34:49;;;;;;;5.77;2.77;;;;;;;4.18;100.00;97598.59;10373032;28;20785;-53
2022/05/09 03:39:50;;;;;;;6.73;3.33;;;;;;;4.19;100.00;97595.94;10373024;28;20224;-55
2022/05/09 03:44:51;;;;;;;4.93;3.10;;;;;;;4.24;100.00;97601.69;10372197;28;20225;-53
2022/05/09 03:49:54;;;;;;;6.43;3.07;;;;;;;4.07;100.00;97599.28;10372423;28;20648;-52
2022/05/09 03:54:57;;;;;;;8.03;3.50;;;;;;;4.14;100.00;97597.97;10372491;28;20204;-53
2022/05/09 04:00:06;;;;;;;6.57;3.50;;;;;;;4.29;100.00;97593.63;10371701;28;20245;-52
2022/05/09 04:05:17;;;;;;;10.47;2.93;;;;;;;4.28;100.00;97591.94;10372093;28;20225;-52
2022/05/09 04:10:52;;;;;;;4.20;3.00;;;;;;;4.40;100.00;97591.16;10373623;28;20217;-58
2022/05/09 04:21:33;;;;;;;8.83;3.30;;;;;;;4.66;100.00;97598.25;10376033;28;20218;-55
2022/05/09 04:32:31;;;;;;;4.27;2.97;;;;;;;5.00;100.00;97597.72;10349140;28;20267;-58
2022/05/09 04:37:48;;;;;;;3.77;2.77;;;;;;;5.24;100.00;97593.63;10370790;28;20201;-54
2022/05/09 04:42:48;;;;;;;10.33;3.00;;;;;;;5.49;100.00;97596.25;10370203;28;20312;-53
2022/05/09 04:47:50;;;;;;;5.33;2.43;;;;;;;5.66;100.00;97591.69;10370999;28;20300;-60
2022/05/09 04:52:51;;;;;;;4.60;2.70;;;;;;;5.98;100.00;97605.13;10375469;28;20679;-59
2022/05/09 04:57:51;;;;;;;3.43;2.47;;;;;;;6.29;100.00;97604.78;10373341;28;20240;-54
2022/05/09 05:02:53;;;;;;;7.13;3.23;;;;;;;6.47;100.00;97600.88;10370640;28;20217;-53
2022/05/09 05:07:54;;;;;;;4.60;2.50;;;;;;;6.72;100.00;97599.13;10370211;28;20575;-57
2022/05/09 05:12:56;;;;;;;6.27;3.33;;;;;;;6.95;100.00;97600.06;10370309;28;20271;-55
2022/05/09 05:17:57;;;;;;;6.20;3.03;;;;;;;7.32;100.00;97608.63;10370060;28;20209;-57
2022/05/09 05:22:57;;;;;;;5.00;2.70;;;;;;;7.70;100.00;97609.28;10370024;28;20255;-59
2022/05/09 05:27:58;;;;;;;7.73;3.37;;;;;;;8.00;100.00;97608.72;10369992;28;20295;-60
2022/05/09 05:32:58;;;;;;;11.30;3.27;;;;;;;8.44;100.00;97615.84;10366829;28;20679;-57
2022/05/09 05:37:59;;;;;;;6.27;2.77;;;;;;;8.72;100.00;97611.91;10370511;28;20561;-56
2022/05/09 05:42:59;;;;;;;12.87;3.30;;;;;;;9.15;100.00;97605.81;10385205;28;20585;-52
2022/05/09 05:48:00;;;;;;;7.50;3.70;;;;;;;9.51;100.00;97605.50;10369505;28;20247;-55
2022/05/09 05:53:00;;;;;;;8.23;3.40;;;;;;;10.07;100.00;97601.69;10377313;28;20228;-56
2022/05/09 05:58:00;;;;;;;7.20;3.40;;;;;;;10.71;100.00;97601.38;10359215;28;20335;-58
2022/05/09 06:03:01;;;;;;;10.17;3.17;;;;;;;11.67;98.33;97589.31;10376568;28;20224;-58
2022/05/09 06:08:01;;;;;;;4.82;2.67;;;;;;;12.71;90.69;97554.19;10376927;28;20217;-58
2022/05/09 06:13:03;;;;;;;7.03;3.20;;;;;;;14.03;83.30;97534.97;10376784;28;20272;-57
2022/05/09 06:18:08;;;;;;;5.50;2.47;;;;;;;15.11;75.41;97489.38;10376599;28;20232;-58
2022/05/09 06:23:11;;;;;;;7.40;2.88;;;;;;;15.97;70.58;97448.25;10376380;28;20209;-58
2022/05/09 06:28:15;;;;;;;6.07;2.95;;;;;;;15.15;74.67;97536.38;10372384;28;20259;-56
2022/05/09 06:33:23;;;;;;;9.32;2.65;;;;;;;16.31;69.68;97468.22;10372476;28;20219;-58
2022/05/09 06:38:25;;;;;;;8.00;2.65;;;;;;;15.91;71.55;97503.59;10372638;28;20213;-59
2022/05/09 06:43:26;;;;;;;8.98;3.08;;;;;;;16.82;69.60;97474.84;10373343;28;20272;-57
2022/05/09 06:48:26;;;;;;;8.00;2.63;;;;;;;18.00;65.02;97433.63;10371736;28;20278;-55
2022/05/09 06:53:27;;;;;;;5.10;2.80;;;;;;;17.79;66.44;97464.34;10371360;28;20277;-58
2022/05/09 06:58:27;;;;;;;4.75;2.85;;;;;;;18.94;63.83;97448.66;10371596;28;20237;-57
2022/05/09 07:03:30;;;;;;;6.25;2.72;;;;;;;18.56;64.46;97466.66;10466611;22;20704;-57
2022/05/09 07:08:32;;;;;;;8.07;3.35;;;;;;;18.83;62.15;97436.69;10453050;28;20206;-56
2022/05/09 07:13:33;;;;;;;6.00;2.83;;;;;;;18.77;63.77;97471.97;10453382;28;20671;-60
2022/05/09 07:18:34;;;;;;;6.47;2.60;;;;;;;19.76;61.37;97451.69;10451299;28;20196;-57
2022/05/09 07:23:35;;;;;;;12.52;3.00;;;;;;;19.02;62.74;97469.78;10452900;28;20228;-55
2022/05/09 07:28:35;;;;;;;6.30;2.40;;;;;;;18.53;66.00;97521.75;10450328;28;20595;-58
2022/05/09 07:33:36;;;;;;;8.20;2.72;;;;;;;18.84;63.94;97495.94;10448741;28;20690;-58
2022/05/09 07:38:36;;;;;;;9.73;2.95;;;;;;;20.02;60.53;97447.53;10410865;28;20255;-55
2022/05/09 07:43:37;;;;;;;3.05;2.08;;;;;;;19.65;61.92;97473.47;10444618;28;20285;-58
2022/05/09 07:48:40;;;;;;;6.18;2.65;;;;;;;21.15;58.04;97430.97;10447551;28;20282;-58
2022/05/09 07:53:40;;;;;;;4.82;2.25;;;;;;;21.80;54.04;97356.34;10450799;28;20215;-58
2022/05/09 07:58:41;;;;;;;6.97;2.72;;;;;;;22.76;48.73;97266.38;10451253;28;20194;-58
2022/05/09 08:03:42;;;;;;;7.03;2.80;;;;;;;21.96;49.09;97271.53;10449975;28;20239;-59
2022/05/09 08:08:43;;;;;;;6.18;2.42;;;;;;;22.04;50.64;97314.78;10450841;28;20191;-59
2022/05/09 08:13:44;;;;;;;6.40;2.17;;;;;;;21.07;49.62;97263.31;10449755;28;20574;-61
2022/05/09 08:18:44;;;;;;;6.75;2.67;;;;;;;21.35;48.79;97265.69;10450312;28;20192;-60
2022/05/09 08:23:45;;;;;;;5.45;1.98;;;;;;;21.53;48.97;97281.84;10446122;28;20245;-61
2022/05/09 08:28:46;;;;;;;4.65;2.00;;;;;;;21.53;48.36;97273.00;10433571;28;20203;-58
2022/05/09 08:33:49;;;;;;;6.38;2.03;;;;;;;21.29;49.69;97299.31;10435956;28;20687;-59
2022/05/09 08:38:49;;;;;;;7.15;2.38;;;;;;;21.77;48.42;97291.97;10410429;28;20192;-58
2022/05/09 08:44:19;;;;;;;6.35;2.60;;;;;;;21.70;48.65;97297.31;10409998;28;20232;-60
2022/05/09 08:49:40;;;;;;;6.93;2.38;;;;;;;22.30;47.42;97275.59;10393161;28;20209;-58
2022/05/09 08:54:42;;;;;;;8.20;2.15;;;;;;;22.88;45.99;97258.47;10434342;28;20658;-60
2022/05/09 08:59:48;;;;;;;12.68;2.70;;;;;;;23.13;46.80;97298.50;10450904;28;20603;-60
2022/05/09 09:04:53;;;;;;;5.05;2.13;;;;;;;22.07;46.78;97262.84;10451408;28;20628;-62
2022/05/09 09:10:12;;;;;;;6.30;1.98;;;;;;;22.21;45.45;97232.34;10433521;28;20581;-61
2022/05/09 09:15:36;;;;;;;4.63;2.63;;;;;;;22.46;46.28;97270.78;10451300;28;20187;-58
2022/05/09 09:20:58;;;;;;;4.55;2.00;;;;;;;24.00;43.54;97238.56;10451059;28;20242;-60
2022/05/09 09:26:12;;;;;;;4.72;2.20;;;;;;;23.18;43.32;97211.50;10454057;28;20214;-61
2022/05/09 09:31:28;;;;;;;9.60;2.42;;;;;;;23.30;44.02;97239.91;10441145;28;20216;-60
2022/05/09 09:36:35;;;;;;;8.20;2.17;;;;;;;22.85;43.92;97218.00;10459026;28;20198;-62
2022/05/09 09:41:36;;;;;;;6.38;2.38;;;;;;;22.39;45.10;97242.28;10441322;28;20265;-62
2022/05/09 09:47:00;;;;;;;6.70;2.00;;;;;;;22.76;45.53;97277.06;10448852;28;20302;-61
2022/05/09 09:52:00;;;;;;;3.83;2.47;;;;;;;21.45;45.08;97214.56;10417475;28;20277;-60
2022/05/09 09:57:19;;;;;;;3.67;1.80;;;;;;;23.78;42.21;97224.03;10440092;28;20203;-61
2022/05/09 10:02:26;;;;;;;8.40;2.10;;;;;;;24.14;42.33;97227.66;10455183;28;20273;-61
2022/05/09 10:07:32;;;;;;;6.32;2.20;;;;;;;23.70;42.05;97203.78;10439444;28;20701;-58
2022/05/09 10:12:34;;;;;;;3.88;1.90;;;;;;;24.13;40.46;97157.22;10456901;28;20204;-61
2022/05/09 10:17:34;;;;;;;3.83;2.10;;;;;;;23.03;42.24;97180.56;10455466;28;20619;-60
2022/05/09 10:28:05;;;;;;;5.25;1.95;;;;;;;24.34;41.48;97203.22;10445942;28;20700;-61
2022/05/09 10:33:16;;;;;;;6.38;2.30;;;;;;;24.56;39.78;97161.41;10453466;28;20235;-61
2022/05/09 10:38:20;;;;;;;5.63;2.58;;;;;;;24.49;37.87;97091.06;10452664;28;20223;-57
2022/05/09 10:43:34;;;;;;;5.63;2.00;;;;;;;24.49;40.42;97184.00;10453174;28;20239;-62
2022/05/09 10:48:44;;;;;;;9.52;2.90;;;;;;;24.51;39.69;97157.78;10455029;28;20657;-61
2022/05/09 10:53:53;;;;;;;3.10;2.10;;;;;;;25.64;38.03;97139.38;10455180;28;20281;-58
2022/05/09 10:59:07;;;;;;;5.40;1.80;;;;;;;26.37;35.43;97079.53;10436834;28;20196;-60
2022/05/09 11:04:09;;;;;;;3.67;1.63;;;;;;;25.70;35.57;97049.03;10445685;28;20270;-61
2022/05/09 11:09:28;;;;;;;5.53;1.30;;;;;;;25.09;35.96;97048.81;10434672;28;20216;-61
2022/05/09 11:15:06;;;;;;;8.02;1.38;;;;;;;25.75;36.19;97075.13;10452179;28;20704;-61
2022/05/09 11:20:37;;;;;;;4.00;1.30;;;;;;;25.94;35.44;97057.72;10435053;28;20632;-61
2022/05/09 11:26:21;;;;;;;3.20;1.52;;;;;;;26.03;34.76;97043.88;10412258;28;20224;-61
2022/05/09 11:31:31;;;;;;;6.25;2.15;;;;;;;25.84;33.18;96973.56;10422453;28;20207;-59
2022/05/09 11:36:43;;;;;;;4.45;1.65;;;;;;;26.53;34.69;97057.16;10435272;28;20196;-59
2022/05/09 11:41:54;;;;;;;7.07;1.88;;;;;;;26.61;34.40;97039.78;10452251;28;20264;-57
2022/05/09 11:47:07;;;;;;;5.00;1.50;;;;;;;26.57;35.23;97062.84;10435251;28;20239;-60
2022/05/09 11:52:15;;;;;;;8.00;1.85;;;;;;;27.75;32.85;97022.84;10452121;28;20204;-60
2022/05/09 11:57:26;;;;;;;5.57;1.95;;;;;;;28.23;33.04;97044.41;10419755;28;20231;-62
2022/05/09 12:02:43;;;;;;;3.00;1.70;;;;;;;27.23;33.09;97005.47;10434553;28;20235;-62
2022/05/09 12:07:49;;;;;;;7.30;2.08;;;;;;;26.42;35.07;97025.06;10452287;28;20634;-63
2022/05/09 12:12:56;;;;;;;4.25;2.00;;;;;;;28.34;33.19;97042.56;10453125;28;20207;-62
2022/05/09 12:18:00;;;;;;;6.38;2.30;;;;;;;28.31;33.01;97035.81;10434773;28;20288;-62
2022/05/09 12:23:12;;;;;;;5.30;2.42;;;;;;;26.95;35.61;97058.44;10450671;28;20682;-62
2022/05/09 12:28:18;;;;;;;7.18;2.38;;;;;;;28.62;32.69;97041.34;10460398;28;20218;-61
2022/05/09 12:33:35;;;;;;;5.90;2.40;;;;;;;26.93;35.32;97049.81;10456339;28;20295;-61
2022/05/09 12:38:39;;;;;;;6.57;2.88;;;;;;;27.18;33.69;96992.78;10449967;28;20666;-62
2022/05/09 12:43:54;;;;;;;5.15;2.20;;;;;;;28.04;32.40;96974.81;10458327;28;20666;-62
2022/05/09 12:48:57;;;;;;;9.18;2.60;;;;;;;27.16;34.68;97021.00;10469194;28;20185;-62
2022/05/09 12:54:07;;;;;;;7.25;3.00;;;;;;;29.59;31.35;97010.16;10449948;28;20188;-61
2022/05/09 12:59:10;;;;;;;4.80;2.50;;;;;;;26.53;35.99;97040.22;10451309;28;20576;-60
2022/05/09 13:04:26;;;;;;;13.05;2.40;;;;;;;26.34;35.24;97008.31;10449855;28;20254;-60
2022/05/09 13:09:34;;;;;;;6.30;2.53;;;;;;;27.77;33.97;97020.69;10421679;22;20730;-61
2022/05/09 13:14:45;;;;;;;6.10;2.00;;;;;;;26.94;34.89;97003.06;10376669;28;20193;-61
2022/05/09 13:19:49;;;;;;;5.18;2.10;;;;;;;27.01;33.51;96959.81;10364574;28;20719;-61
2022/05/09 13:24:52;;;;;;;5.70;2.47;;;;;;;28.76;32.38;96987.72;10365954;28;20220;-61
2022/05/09 13:29:54;;;;;;;7.43;2.40;;;;;;;28.28;33.97;97006.69;10367124;28;20220;-60
2022/05/09 13:34:55;;;;;;;5.68;2.35;;;;;;;28.11;33.08;96974.56;10368499;28;20192;-60
2022/05/09 13:39:59;;;;;;;4.97;2.20;;;;;;;27.61;33.61;96973.19;10368439;28;20654;-60
2022/05/09 13:45:01;;;;;;;5.72;2.60;;;;;;;27.36;34.11;96962.00;10366765;28;20228;-60
2022/05/09 13:50:01;;;;;;;5.03;1.90;;;;;;;30.15;31.88;97022.75;10367320;28;20568;-61
2022/05/09 13:55:04;;;;;;;9.38;2.53;;;;;;;30.43;30.90;96969.97;10366531;28;20186;-58
2022/05/09 14:00:17;;;;;;;7.18;2.20;;;;;;;28.92;29.87;96867.19;10365777;28;20220;-60
2022/05/09 14:05:25;;;;;;;5.05;2.10;;;;;;;29.45;31.45;96951.34;10367896;28;20233;-60
2022/05/09 14:10:41;;;;;;;9.27;2.17;;;;;;;32.60;27.48;96930.81;10368183;28;20248;-60
2022/05/09 14:15:53;;;;;;;9.60;2.42;;;;;;;32.15;28.66;96920.31;10372376;28;20189;-61
2022/05/09 14:20:58;;;;;;;4.50;2.05;;;;;;;33.09;27.06;96910.50;10357282;28;20204;-61
2022/05/09 14:31:27;;;;;;;8.48;2.30;;;;;;;31.07;28.65;96848.34;10345623;28;20209;-61
2022/05/09 14:36:36;;;;;;;5.65;1.98;;;;;;;33.31;25.47;96833.03;10346010;28;20275;-61
2022/05/09 14:41:36;;;;;;;5.45;1.90;;;;;;;33.86;25.90;96862.13;10353806;28;20212;-61
2022/05/09 14:46:44;;;;;;;7.00;2.00;;;;;;;34.46;25.91;96880.16;10354467;28;20228;-61
2022/05/09 14:51:57;;;;;;;10.63;2.08;;;;;;;34.02;25.91;96849.81;10355564;28;20583;-61
2022/05/09 15:02:25;;;;;;;4.22;2.08;;;;;;;32.80;27.30;96854.53;10372603;28;20196;-61
2022/05/09 15:07:26;;;;;;;4.18;2.13;;;;;;;32.78;26.01;96821.47;10372224;28;20703;-61
2022/05/09 15:12:28;;;;;;;3.33;1.63;;;;;;;34.69;26.03;96885.59;10351311;28;20281;-61
2022/05/09 15:17:29;;;;;;;7.28;1.90;;;;;;;33.01;27.53;96878.63;10337863;28;20476;-59
2022/05/09 15:22:29;;;;;;;5.63;3.13;;;;;;;31.68;27.89;96808.16;10359279;28;20272;-60
2022/05/09 15:27:30;;;;;;;6.87;2.27;;;;;;;32.56;26.94;96835.66;10367731;28;20464;-59
2022/05/09 15:32:30;;;;;;;4.47;2.17;;;;;;;34.25;25.10;96836.28;10332590;28;20970;-59
2022/05/09 15:37:32;;;;;;;5.65;1.95;;;;;;;32.39;26.52;96805.53;10371231;28;20213;-61
2022/05/09 15:42:33;;;;;;;6.22;2.28;;;;;;;29.55;29.27;96771.53;10361918;28;20190;-61
2022/05/09 15:47:36;;;;;;;6.10;2.13;;;;;;;30.97;29.05;96851.94;10338440;28;20231;-60
2022/05/09 15:52:42;;;;;;;4.03;1.85;;;;;;;31.71;27.22;96818.41;10350139;28;20179;-62
2022/05/09 15:57:48;;;;;;;6.72;2.08;;;;;;;30.64;28.61;96813.00;10339077;28;20628;-62
2022/05/09 16:02:49;;;;;;;6.90;3.40;;;;;;;30.50;28.85;96823.66;10355480;28;20699;-62
2022/05/09 16:13:10;;;;;;;4.15;2.30;;;;;;;27.70;32.29;96829.78;10351907;28;20181;-61
2022/05/09 16:18:27;;;;;;;5.63;1.95;;;;;;;27.33;31.99;96828.00;10350758;28;20213;-61
2022/05/09 16:23:30;;;;;;;7.70;2.70;;;;;;;25.21;35.55;96858.38;10354300;28;20232;-61
2022/05/09 16:28:30;;;;;;;10.90;3.92;;;;;;;23.45;38.51;96902.59;10351000;28;20263;-61
2022/05/09 16:33:32;;;;;;;5.72;2.70;;;;;;;23.50;39.40;96945.47;10349400;28;20222;-60
2022/05/09 16:38:33;;;;;;;4.65;2.13;;;;;;;23.14;38.65;96920.63;10352068;28;20271;-61
2022/05/09 16:43:35;;;;;;;5.85;1.80;;;;;;;23.45;38.56;96933.88;10338284;28;20190;-60
2022/05/09 16:48:35;;;;;;;3.53;2.25;;;;;;;22.76;39.94;96953.88;10339123;28;20241;-63
2022/05/09 16:53:35;;;;;;;6.47;2.20;;;;;;;22.19;41.03;96964.03;10370481;28;20747;-61
2022/05/09 16:58:37;;;;;;;5.20;1.80;;;;;;;22.38;40.20;96948.88;10366393;28;20692;-63
2022/05/09 17:03:39;;;;;;;10.02;2.53;;;;;;;22.15;40.81;96957.56;10331341;28;20604;-61
2022/05/09 17:08:39;;;;;;;9.80;2.30;;;;;;;21.71;42.19;96982.44;10339341;28;20241;-62
2022/05/09 17:13:40;;;;;;;5.55;2.38;;;;;;;21.36;43.22;97017.59;10367601;28;20213;-62
2022/05/09 17:18:41;;;;;;;4.55;1.90;;;;;;;20.62;44.11;97022.56;10369187;28;20244;-62
2022/05/09 17:23:41;;;;;;;4.35;1.90;;;;;;;20.54;42.44;96963.47;10369838;28;20193;-62
2022/05/09 17:28:42;;;;;;;5.70;1.88;;;;;;;20.50;42.54;96965.72;10369279;28;20291;-60
2022/05/09 17:33:42;;;;;;;3.55;2.00;;;;;;;20.19;45.45;97047.09;10368814;28;20235;-61
2022/05/09 17:38:44;;;;;;;5.10;1.60;;;;;;;20.33;44.76;97037.22;10369002;28;20216;-61
2022/05/09 17:43:44;;;;;;;5.65;1.70;;;;;;;19.92;45.33;97041.88;10365324;28;20593;-60
2022/05/09 17:48:45;;;;;;;5.38;2.10;;;;;;;19.38;46.61;97067.63;10330659;28;20216;-63
2022/05/09 17:53:45;;;;;;;7.88;2.63;;;;;;;19.20;47.80;97104.59;10357238;28;20264;-58
2022/05/09 17:58:47;;;;;;;6.00;2.25;;;;;;;18.86;49.10;97135.53;10367405;28;20213;-59
2022/05/09 18:03:48;;;;;;;6.70;2.10;;;;;;;18.70;49.44;97134.84;10373035;28;20193;-61
2022/05/09 18:08:48;;;;;;;7.47;2.25;;;;;;;18.39;49.92;97148.56;10373004;28;20237;-61
2022/05/09 18:13:50;;;;;;;5.47;2.17;;;;;;;18.28;50.39;97154.41;10372950;28;20695;-61
2022/05/09 18:18:58;;;;;;;2.97;2.10;;;;;;;17.95;52.19;97195.59;10373101;28;20221;-60
2022/05/09 18:24:03;;;;;;;8.82;3.22;;;;;;;17.07;55.55;97261.88;10364025;28;20198;-61
2022/05/09 18:29:04;;;;;;;6.85;3.20;;;;;;;16.06;59.11;97316.88;10368259;28;20786;-60
2022/05/09 18:34:06;;;;;;;4.90;3.55;;;;;;;15.49;60.94;97318.81;10372673;28;20221;-61
2022/05/09 18:39:12;;;;;;;5.80;2.60;;;;;;;15.15;62.93;97340.25;10371001;28;20220;-60
2022/05/09 18:44:12;;;;;;;5.47;2.50;;;;;;;14.34;65.65;97385.00;10372498;28;20185;-60
2022/05/09 18:54:34;;;;;;;6.43;2.60;;;;;;;13.70;68.53;97364.44;10372011;28;20221;-55
2022/05/09 18:59:36;;;;;;;4.85;2.58;;;;;;;13.29;70.16;97369.53;10370617;28;20202;-60
2022/05/09 19:04:36;;;;;;;4.40;3.00;;;;;;;13.26;71.51;97379.53;10371317;28;20656;-57
2022/05/09 19:09:46;;;;;;;5.25;3.20;;;;;;;12.87;73.86;97393.13;10370395;28;20249;-56
2022/05/09 19:14:46;;;;;;;11.18;5.30;;;;;;;12.84;74.36;97371.41;10370594;28;20673;-59
2022/05/09 19:19:46;;;;;;;8.45;3.20;;;;;;;12.62;76.14;97377.19;10425972;22;20438;-57
2022/05/09 19:24:47;;;;;;;6.88;3.03;;;;;;;12.58;77.10;97378.47;10411321;28;20200;-57
2022/05/09 19:29:52;;;;;;;3.90;2.50;;;;;;;12.24;79.96;97384.44;10411170;28;20216;-59
2022/05/09 19:34:52;;;;;;;5.47;3.03;;;;;;;12.03;81.45;97377.66;10410755;28;20248;-59
2022/05/09 19:39:53;;;;;;;9.90;2.60;;;;;;;11.95;82.37;97380.19;10409793;28;20292;-59
2022/05/09 19:44:55;;;;;;;8.23;3.03;;;;;;;11.73;83.68;97382.25;10410589;28;20283;-59
2022/05/09 19:49:58;;;;;;;5.43;3.07;;;;;;;11.59;84.60;97393.22;10409004;28;20864;-59
2022/05/09 19:54:59;;;;;;;6.33;2.60;;;;;;;11.63;83.97;97384.09;10410122;28;20358;-57
2022/05/09 20:00:01;;;;;;;4.50;2.67;;;;;;;11.41;85.95;97390.56;10409404;28;20760;-54
2022/05/09 20:05:01;;;;;;;4.73;2.77;;;;;;;11.35;85.23;97394.56;10410133;28;20185;-53
2022/05/09 20:10:03;;;;;;;5.17;3.33;;;;;;;11.16;87.67;97410.38;10409140;28;20212;-57
2022/05/09 20:15:05;;;;;;;8.53;3.30;;;;;;;11.09;87.93;97398.78;10409201;28;20721;-56
2022/05/09 20:20:07;;;;;;;5.23;2.63;;;;;;;10.91;88.39;97403.97;10407774;28;20240;-57
2022/05/09 20:25:11;;;;;;;9.43;3.17;;;;;;;10.64;91.45;97416.00;10409266;28;20189;-57
2022/05/09 20:30:12;;;;;;;5.07;2.93;;;;;;;10.57;92.18;97410.50;10408615;28;20299;-53
2022/05/09 20:35:14;;;;;;;4.27;2.83;;;;;;;10.49;92.80;97413.81;10408719;28;20599;-59
2022/05/09 20:40:21;;;;;;;5.70;2.70;;;;;;;10.42;93.17;97417.13;10408936;28;20181;-54
2022/05/09 20:45:22;;;;;;;4.97;2.70;;;;;;;10.24;94.41;97415.13;10407307;28;20192;-53
2022/05/09 20:50:22;;;;;;;9.20;3.23;;;;;;;10.10;96.46;97419.00;10408894;28;20211;-54
2022/05/09 20:55:23;;;;;;;4.23;2.90;;;;;;;10.05;96.58;97417.75;10408348;28;20224;-54
2022/05/09 21:00:26;;;;;;;3.67;2.70;;;;;;;9.90;97.97;97414.69;10407855;28;20196;-54
2022/05/09 21:05:26;;;;;;;8.03;2.83;;;;;;;9.88;98.53;97414.00;10408100;28;20215;-54
2022/05/09 21:10:28;;;;;;;7.90;3.03;;;;;;;9.74;100.00;97413.44;10407877;28;20354;-55
2022/05/09 21:15:28;;;;;;;4.07;2.77;;;;;;;9.70;100.00;97416.44;10407814;28;20228;-56
2022/05/09 21:20:29;;;;;;;9.87;3.03;;;;;;;9.42;100.00;97410.97;10407814;28;20197;-53
2022/05/09 21:25:42;;;;;;;8.37;3.17;;;;;;;9.43;100.00;97410.00;10407566;28;20226;-53
2022/05/09 21:30:42;;;;;;;6.23;3.17;;;;;;;9.37;100.00;97410.53;10408103;28;20249;-55
2022/05/09 21:35:45;;;;;;;5.00;2.93;;;;;;;9.30;100.00;97404.19;10407050;28;20228;-53
2022/05/09 21:41:03;;;;;;;5.37;3.10;;;;;;;9.23;100.00;97411.72;10406753;28;20226;-54
2022/05/09 21:46:03;;;;;;;8.00;3.40;;;;;;;9.10;100.00;97410.16;10406915;28;20208;-56
2022/05/09 21:51:04;;;;;;;5.53;2.60;;;;;;;9.09;100.00;97408.47;10406470;28;20188;-54
2022/05/09 21:56:06;;;;;;;5.23;2.70;;;;;;;9.09;100.00;97399.81;10406873;28;20244;-57
2022/05/09 22:01:10;;;;;;;7.47;3.27;;;;;;;8.98;100.00;97395.50;10405660;28;20199;-55
2022/05/09 22:06:15;;;;;;;6.13;3.07;;;;;;;8.83;100.00;97395.00;10405518;28;20577;-54
2022/05/09 22:11:16;;;;;;;6.53;3.47;;;;;;;8.80;100.00;97389.22;10405487;28;20238;-53
2022/05/09 22:16:16;;;;;;;10.27;3.40;;;;;;;8.65;100.00;97392.16;10406481;28;20780;-54
2022/05/09 22:21:16;;;;;;;6.60;3.40;;;;;;;8.59;100.00;97379.63;10406031;28;20719;-53
2022/05/09 22:26:19;;;;;;;6.90;2.70;;;;;;;8.56;100.00;97380.69;10408453;28;20220;-56
2022/05/09 22:31:19;;;;;;;6.67;3.33;;;;;;;8.54;100.00;97372.13;10407225;28;20208;-53
2022/05/09 22:36:19;;;;;;;7.33;3.23;;;;;;;8.51;100.00;97359.31;10413486;28;20232;-54
2022/05/09 22:41:20;;;;;;;7.63;2.87;;;;;;;8.52;100.00;97352.34;10414071;28;20203;-53
2022/05/09 22:46:25;;;;;;;9.10;3.40;;;;;;;8.57;100.00;97351.00;10412993;28;20216;-53
2022/05/09 22:51:26;;;;;;;6.87;3.30;;;;;;;8.53;100.00;97344.38;10413709;28;20216;-54
2022/05/09 22:56:26;;;;;;;7.43;3.00;;;;;;;8.50;100.00;97344.63;10412698;28;20303;-54
2022/05/09 23:01:30;;;;;;;7.00;3.10;;;;;;;8.47;100.00;97339.66;10411553;28;20617;-55
2022/05/09 23:06:30;;;;;;;10.50;3.20;;;;;;;8.51;100.00;97338.44;10413026;28;20204;-53
2022/05/09 23:11:32;;;;;;;10.33;3.17;;;;;;;8.50;100.00;97333.34;10412335;28;20189;-53
2022/05/09 23:16:35;;;;;;;6.93;3.63;;;;;;;8.49;100.00;97324.69;10412087;28;20739;-53
2022/05/09 23:21:35;;;;;;;5.57;2.57;;;;;;;8.44;100.00;97321.66;10412171;28;20216;-55
2022/05/09 23:26:36;;;;;;;8.70;2.60;;;;;;;8.42;100.00;97315.69;10411837;28;20209;-54
2022/05/09 23:31:36;;;;;;;13.77;2.80;;;;;;;8.47;100.00;97299.66;10411058;28;20250;-53
2022/05/09 23:36:36;;;;;;;6.27;2.73;;;;;;;8.48;100.00;97291.69;10411218;28;20232;-54
2022/05/09 23:41:38;;;;;;;8.77;3.33;;;;;;;8.54;100.00;97290.34;10411410;28;20192;-56
2022/05/09 23:46:40;;;;;;;4.50;2.70;;;;;;;8.68;100.00;97282.19;10409148;28;20209;-53
2022/05/09 23:51:41;;;;;;;8.30;3.20;;;;;;;8.79;100.00;97263.00;10411164;28;20204;-54
2022/05/09 23:56:41;;;;;;;6.63;2.90;;;;;;;8.64;100.00;97265.13;10410696;28;20236;-56
